Terminal Aerodrome Forecast
Issued by NWS Charleston, WV

Current Version | Previous Version | Graphics & Text | Print | Product List | Glossary On
Versions: 1 2 3 4 5 6 7 8 9 10 11 12 13 14 15 16 17 18 19 20 21 22 23 24 25 26 27
000
FTUS41 KRLX 162335
TAFBKW
TAF
KBKW 162335Z 1700/1724 00000KT P6SM OVC060
     FM170800 16006KT P6SM OVC030
     FM171000 17007KT 2SM -SHRA OVC020
     FM171200 18007KT 3SM -SHRA OVC011
     FM171400 19008KT 3SM -SHRA OVC008
     FM171600 20009G15KT 3SM -SHRA OVC015
     FM172000 23011G19KT 5SM -SHRA OVC020=

USA.gov is the U.S. government's official web portal to all federal, state and local government web resources and services.